Time;durP1;ratioP1;P1;durP2;ratioP2;P2;SDS_P1;SDS_P2;PMS_P1;PMS_P2;Temp;Humidity;BMP_temperature;BMP_pressure;BME280_temperature;BME280_humidity;BME280_pressure;Samples;Min_cycle;Max_cycle;Signal;HPM_P1;HPM_P2
2023/07/19 00:00:50;;;;;;;;;3.50;3.50;;;;;24.96;40.47;101030.03;4998470;28;45339;-67
2023/07/19 00:03:15;;;;;;;;;5.00;4.00;;;;;24.92;40.37;101036.75;4998546;28;46341;-67
2023/07/19 00:05:41;;;;;;;;;2.75;2.75;;;;;24.78;40.26;101024.31;4997619;28;45571;-66
2023/07/19 00:08:08;;;;;;;;;4.00;2.00;;;;;25.00;40.60;101057.91;4997981;28;45343;-66
2023/07/19 00:10:36;;;;;;;;;3.00;2.50;;;;;24.87;40.85;101041.75;4998272;28;45490;-67
2023/07/19 00:13:07;;;;;;;;;2.25;2.25;;;;;24.87;40.92;101050.78;4998505;28;45472;-66
2023/07/19 00:15:33;;;;;;;;;3.00;2.00;;;;;24.75;40.71;101035.50;4998482;28;45326;-66
2023/07/19 00:17:59;;;;;;;;;2.00;2.00;;;;;24.93;40.64;101072.09;4997682;28;46943;-66
2023/07/19 00:20:27;;;;;;;;;3.00;2.00;;;;;24.91;41.13;101079.56;4998187;28;45437;-66
2023/07/19 00:22:55;;;;;;;;;0.00;0.00;;;;;24.79;41.39;101058.78;4998424;28;45685;-67
2023/07/19 00:25:21;;;;;;;;;3.00;3.00;;;;;24.71;40.88;101055.91;4998098;28;45590;-66
2023/07/19 00:27:49;;;;;;;;;2.00;2.00;;;;;24.84;41.11;101072.94;4999358;28;45650;-66
2023/07/19 00:30:17;;;;;;;;;2.50;2.50;;;;;24.79;40.89;101069.72;5001350;28;45471;-67
2023/07/19 00:32:52;;;;;;;;;4.50;2.00;;;;;24.63;41.31;101050.25;5001628;28;45723;-66
2023/07/19 00:35:22;;;;;;;;;3.00;3.00;;;;;24.56;40.91;101052.63;5001336;28;45652;-66
2023/07/19 00:37:50;;;;;;;;;2.00;2.00;;;;;24.53;41.53;101050.13;5001290;28;45539;-67
2023/07/19 00:40:15;;;;;;;;;1.50;1.00;;;;;24.49;41.45;101046.81;5000313;28;45583;-67
2023/07/19 00:42:41;;;;;;;;;4.00;2.00;;;;;24.57;41.79;101060.69;5001719;28;45395;-66
2023/07/19 00:45:09;;;;;;;;;2.00;2.00;;;;;24.39;41.11;101046.72;5001251;28;45528;-67
2023/07/19 00:47:39;;;;;;;;;1.75;0.75;;;;;24.39;41.60;101029.47;5001311;28;46122;-66
2023/07/19 00:50:10;;;;;;;;;1.00;1.00;;;;;24.48;41.60;101044.22;5000313;28;45619;-66
2023/07/19 00:52:48;;;;;;;;;3.00;2.25;;;;;24.43;41.79;101058.25;5001261;28;45447;-66
2023/07/19 00:55:13;;;;;;;;;2.50;2.50;;;;;24.34;41.47;101037.19;4977351;28;45642;-66
2023/07/19 00:57:46;;;;;;;;;5.25;2.25;;;;;24.51;42.20;101065.78;4994124;28;45715;-66
2023/07/19 01:00:15;;;;;;;;;2.00;2.00;;;;;24.37;41.96;101048.75;5001301;28;45461;-66
2023/07/19 01:02:44;;;;;;;;;2.00;2.00;;;;;24.34;42.38;101045.38;5000855;28;45667;-67
2023/07/19 01:05:12;;;;;;;;;2.00;1.75;;;;;24.30;41.89;101052.97;5000934;28;45750;-66
2023/07/19 01:07:39;;;;;;;;;2.50;2.50;;;;;24.28;42.42;101054.97;4982950;28;46210;-66
2023/07/19 01:10:05;;;;;;;;;2.00;2.00;;;;;24.38;41.99;101069.53;4999532;28;45394;-66
2023/07/19 01:12:33;;;;;;;;;2.50;1.00;;;;;24.29;41.91;101056.72;4997872;28;45402;-66
2023/07/19 01:15:08;;;;;;;;;3.00;3.00;;;;;24.38;42.33;101063.22;4990773;28;45392;-66
2023/07/19 01:17:36;;;;;;;;;2.00;2.00;;;;;24.09;42.35;101016.63;5000640;28;46397;-66
2023/07/19 01:20:12;;;;;;;;;1.25;1.25;;;;;24.31;41.87;101051.13;5000964;28;45616;-66
2023/07/19 01:22:42;;;;;;;;;3.00;3.00;;;;;24.22;41.76;101039.13;5000599;28;45405;-66
2023/07/19 01:25:10;;;;;;;;;2.50;2.50;;;;;24.25;41.79;101044.31;5000586;28;45345;-67
2023/07/19 01:27:36;;;;;;;;;1.25;1.25;;;;;24.32;41.86;101067.34;5000008;28;45561;-66
2023/07/19 01:30:02;;;;;;;;;3.25;3.25;;;;;24.17;41.93;101041.38;4987169;28;45413;-66
2023/07/19 01:32:27;;;;;;;;;2.00;2.00;;;;;24.31;42.20;101064.78;5000633;28;45309;-66
2023/07/19 01:34:55;;;;;;;;;2.25;2.00;;;;;24.30;41.72;101068.47;4998064;28;45417;-67
2023/07/19 01:37:20;;;;;;;;;2.00;1.00;;;;;24.13;42.14;101046.22;5000170;28;45644;-67
2023/07/19 01:39:46;;;;;;;;;3.00;2.00;;;;;24.09;42.23;101049.34;4989642;28;45491;-66
2023/07/19 01:42:14;;;;;;;;;2.00;2.00;;;;;24.22;41.93;101078.19;4993978;28;45595;-67
2023/07/19 01:44:39;;;;;;;;;4.00;2.00;;;;;24.08;42.23;101067.56;4963216;28;45662;-66
2023/07/19 01:47:05;;;;;;;;;3.00;2.00;;;;;23.91;42.16;101039.00;4962805;28;48632;-67
2023/07/19 01:49:35;;;;;;;;;2.00;1.50;;;;;23.91;42.07;101044.47;4991914;28;45335;-66
2023/07/19 01:52:00;;;;;;;;;2.00;2.00;;;;;24.10;42.01;101079.22;4963276;28;45500;-66
2023/07/19 01:54:31;;;;;;;;;1.75;1.75;;;;;24.21;42.25;101091.97;4980646;28;45441;-67
2023/07/19 01:56:59;;;;;;;;;1.00;1.00;;;;;23.86;41.76;101044.84;4982470;28;48172;-66
2023/07/19 01:59:25;;;;;;;;;2.25;2.25;;;;;24.04;42.11;101080.59;5000108;28;45512;-66
2023/07/19 02:01:52;;;;;;;;;4.25;2.50;;;;;24.10;42.01;101095.56;5000143;28;45448;-66
2023/07/19 02:04:18;;;;;;;;;1.50;1.00;;;;;24.14;42.19;101101.63;5000041;28;45630;-67
2023/07/19 02:06:46;;;;;;;;;1.25;1.00;;;;;23.94;41.98;101068.75;4999588;28;46008;-66
2023/07/19 02:09:16;;;;;;;;;1.00;1.00;;;;;24.00;42.47;101084.56;4998697;28;45720;-67
2023/07/19 02:11:42;;;;;;;;;2.00;2.00;;;;;23.94;42.42;101079.66;4982751;28;45411;-66
2023/07/19 02:14:07;;;;;;;;;3.50;2.00;;;;;23.96;42.12;101088.56;4999983;28;45353;-66
2023/07/19 02:16:36;;;;;;;;;2.00;2.00;;;;;23.99;42.37;101082.84;4982266;28;46489;-66
2023/07/19 02:19:03;;;;;;;;;1.25;1.25;;;;;23.92;41.73;101078.03;4999890;28;45341;-66
2023/07/19 02:21:42;;;;;;;;;;;;;;;;;;;;;
2023/07/19 02:24:13;;;;;;;;;3.00;2.00;;;;;23.90;42.40;101089.06;4998859;28;71968;-66
2023/07/19 02:26:38;;;;;;;;;2.50;1.50;;;;;23.89;42.52;101087.34;4999798;28;46230;-67
2023/07/19 02:29:04;;;;;;;;;2.00;2.00;;;;;23.85;42.43;101086.72;4979875;28;45462;-66
2023/07/19 02:31:32;;;;;;;;;1.00;1.00;;;;;23.65;42.37;101058.34;4992602;28;45378;-67
2023/07/19 02:34:00;;;;;;;;;1.00;1.00;;;;;23.79;42.35;101078.16;4998345;28;45438;-66
2023/07/19 02:36:25;;;;;;;;;3.00;2.00;;;;;23.81;42.70;101082.50;4999485;28;46380;-67
2023/07/19 02:38:51;;;;;;;;;2.75;1.50;;;;;23.91;42.52;101101.72;4998387;28;45332;-67
2023/07/19 02:41:21;;;;;;;;;2.00;2.00;;;;;23.88;42.48;101101.09;4999779;28;45337;-66
2023/07/19 02:43:50;;;;;;;;;3.00;3.00;;;;;23.74;42.41;101081.28;4981784;28;45458;-66
2023/07/19 02:46:15;;;;;;;;;2.50;2.50;;;;;23.55;42.30;101053.81;4999683;28;45436;-67
2023/07/19 02:48:41;;;;;;;;;2.25;2.00;;;;;23.84;42.98;101109.53;4976295;28;45407;-67
2023/07/19 02:51:09;;;;;;;;;2.00;2.00;;;;;23.51;43.53;101072.25;4990735;28;45266;-67
2023/07/19 02:53:37;;;;;;;;;4.00;2.50;;;;;23.73;43.12;101112.22;4999463;28;45583;-67
2023/07/19 02:56:04;;;;;;;;;2.00;2.00;;;;;23.77;42.91;101126.47;4997689;28;45468;-66
2023/07/19 02:58:32;;;;;;;;;2.00;2.00;;;;;23.64;43.36;101105.69;4999378;28;45354;-66
2023/07/19 03:00:58;;;;;;;;;2.00;2.00;;;;;23.55;43.29;101092.81;4978663;28;45364;-66
2023/07/19 03:03:23;;;;;;;;;2.00;2.00;;;;;23.48;43.77;101100.63;4999347;28;45466;-66
2023/07/19 03:05:49;;;;;;;;;2.00;2.00;;;;;23.56;43.63;101104.59;4999045;28;45586;-66
2023/07/19 03:08:17;;;;;;;;;3.00;3.00;;;;;23.51;43.47;101104.09;4981484;28;45436;-66
2023/07/19 03:10:43;;;;;;;;;3.00;3.00;;;;;23.65;43.77;101131.94;4999145;28;45713;-66
2023/07/19 03:13:10;;;;;;;;;1.00;1.00;;;;;23.40;43.75;101100.38;4990616;28;45520;-66
2023/07/19 03:15:36;;;;;;;;;2.75;2.75;;;;;23.33;44.27;101096.41;4993686;28;45312;-66
2023/07/19 03:18:03;;;;;;;;;3.50;2.75;;;;;23.34;44.44;101106.34;4998571;28;45401;-66
2023/07/19 03:20:31;;;;;;;;;4.50;3.00;;;;;23.24;44.62;101105.34;4999134;28;45337;-66
2023/07/19 03:22:57;;;;;;;;;3.00;3.00;;;;;23.27;44.37;101126.84;4999048;28;45421;-66
2023/07/19 03:25:24;;;;;;;;;2.00;2.00;;;;;23.18;44.99;101120.28;4998713;28;46120;-66
2023/07/19 03:27:50;;;;;;;;;3.00;3.00;;;;;23.20;44.65;101134.66;4999279;28;45256;-66
2023/07/19 03:30:15;;;;;;;;;2.00;2.00;;;;;23.26;44.69;101155.97;5001114;28;45349;-66
2023/07/19 03:32:43;;;;;;;;;2.00;2.00;;;;;23.18;45.09;101141.22;4981038;28;45432;-66
2023/07/19 03:35:09;;;;;;;;;4.00;2.25;;;;;23.21;44.65;101154.59;4998654;28;45650;-66
2023/07/19 03:37:36;;;;;;;;;5.75;1.25;;;;;23.22;45.42;101165.38;4977788;28;45475;-66
2023/07/19 03:40:03;;;;;;;;;2.50;2.50;;;;;22.88;44.72;101118.97;4982310;28;45420;-66
2023/07/19 03:42:30;;;;;;;;;2.75;2.75;;;;;22.95;45.07;101130.25;4980196;28;45387;-66
2023/07/19 03:44:55;;;;;;;;;1.50;1.25;;;;;22.81;45.11;101114.16;4998398;28;45436;-66
2023/07/19 03:47:25;;;;;;;;;2.00;2.00;;;;;22.86;45.12;101118.22;4998759;28;45329;-66
2023/07/19 03:49:51;;;;;;;;;4.25;2.00;;;;;22.88;44.78;101146.19;4981028;28;45420;-66
2023/07/19 03:52:19;;;;;;;;;3.00;3.00;;;;;22.88;44.50;101139.88;4998686;28;45511;-66
2023/07/19 03:54:46;;;;;;;;;1.75;1.75;;;;;22.72;43.84;101130.22;4998455;28;46571;-66
2023/07/19 03:57:15;;;;;;;;;0.50;0.50;;;;;22.83;44.06;101151.13;4998797;28;45599;-66
2023/07/19 03:59:40;;;;;;;;;2.00;0.25;;;;;22.93;43.95;101175.78;4998635;28;45380;-66
2023/07/19 04:02:06;;;;;;;;;2.00;2.00;;;;;22.80;43.72;101161.38;4999972;28;45483;-66
2023/07/19 04:04:31;;;;;;;;;1.50;1.00;;;;;22.70;43.68;101159.41;5001217;28;45495;-66
2023/07/19 04:06:57;;;;;;;;;1.00;1.00;;;;;22.69;43.48;101164.97;5001872;28;45570;-66
2023/07/19 04:09:22;;;;;;;;;1.00;1.00;;;;;22.80;42.68;101188.59;5001934;28;45396;-66
2023/07/19 04:11:48;;;;;;;;;3.25;0.00;;;;;22.66;43.03;101187.81;5001585;28;45526;-66
2023/07/19 04:14:13;;;;;;;;;1.00;1.00;;;;;22.53;43.11;101182.44;5001755;28;46033;-66
2023/07/19 04:16:45;;;;;;;;;1.00;1.00;;;;;22.29;43.33;101166.13;4974158;28;45664;-66
2023/07/19 04:19:10;;;;;;;;;2.25;1.00;;;;;22.31;42.98;101171.44;4999540;28;45446;-66
2023/07/19 04:21:38;;;;;;;;;2.00;1.00;;;;;22.32;43.91;101193.09;5001744;28;45663;-66
2023/07/19 04:24:04;;;;;;;;;2.25;0.75;;;;;22.33;43.28;101202.97;4982765;28;46545;-66
2023/07/19 04:26:29;;;;;;;;;0.50;0.50;;;;;21.98;43.98;101170.22;4992378;28;45322;-66
2023/07/19 04:28:58;;;;;;;;;2.00;1.00;;;;;22.04;44.14;101180.66;5004091;28;45476;-66
2023/07/19 04:31:24;;;;;;;;;0.50;0.50;;;;;21.95;43.68;101167.72;4983763;28;45567;-66
2023/07/19 04:33:52;;;;;;;;;2.00;1.00;;;;;22.11;44.33;101189.22;5001168;28;45644;-66
2023/07/19 04:36:18;;;;;;;;;1.00;1.00;;;;;22.06;44.41;101186.84;5001515;28;45563;-66
2023/07/19 04:38:43;;;;;;;;;1.00;1.00;;;;;22.22;44.45;101219.22;5000730;28;45416;-66
2023/07/19 04:41:09;;;;;;;;;1.00;1.00;;;;;22.07;44.85;101196.75;5001680;28;45441;-66
2023/07/19 04:43:35;;;;;;;;;1.75;1.50;;;;;21.93;44.94;101180.56;5001225;28;46306;-66
2023/07/19 04:46:01;;;;;;;;;4.00;1.25;;;;;21.92;45.21;101189.69;4989249;28;45477;-66
2023/07/19 04:48:26;;;;;;;;;1.00;1.00;;;;;21.86;45.63;101182.00;4997162;28;45324;-66
2023/07/19 04:50:56;;;;;;;;;1.00;1.00;;;;;21.86;45.92;101188.28;5001303;28;45534;-66
2023/07/19 04:53:22;;;;;;;;;1.00;1.00;;;;;21.89;45.59;101196.22;4983023;28;47218;-66
2023/07/19 04:55:52;;;;;;;;;1.50;1.50;;;;;21.87;45.64;101200.91;5001342;28;45767;-66
2023/07/19 04:58:20;;;;;;;;;2.75;2.00;;;;;21.89;46.43;101198.94;5001382;28;45418;-66
2023/07/19 05:00:48;;;;;;;;;1.00;1.00;;;;;21.90;46.56;101203.41;5001165;28;45417;-66
2023/07/19 05:03:13;;;;;;;;;1.75;1.75;;;;;21.98;46.87;101221.88;4999772;28;45504;-66
2023/07/19 05:05:39;;;;;;;;;3.25;2.25;;;;;21.63;46.58;101177.28;5001093;28;45511;-66
2023/07/19 05:08:06;;;;;;;;;2.00;1.50;;;;;21.87;46.77;101217.22;5000930;28;45436;-66
2023/07/19 05:10:34;;;;;;;;;2.25;2.25;;;;;21.88;46.72;101218.94;4984225;28;45530;-66
2023/07/19 05:13:02;;;;;;;;;2.00;2.00;;;;;21.73;47.11;101201.91;4999912;28;45574;-66
2023/07/19 05:15:27;;;;;;;;;2.00;2.00;;;;;21.63;46.12;101189.97;5001096;28;45505;-66
2023/07/19 05:17:55;;;;;;;;;1.25;1.00;;;;;21.76;46.27;101228.84;5001044;28;45413;-66
2023/07/19 05:20:21;;;;;;;;;1.50;1.50;;;;;21.62;46.65;101202.69;5001033;28;45270;-66
2023/07/19 05:22:49;;;;;;;;;2.00;2.00;;;;;21.80;46.36;101233.09;5000505;28;46468;-66
2023/07/19 05:25:14;;;;;;;;;2.00;2.00;;;;;21.67;46.65;101213.22;4999956;28;45547;-66
2023/07/19 05:27:40;;;;;;;;;1.25;1.25;;;;;21.66;46.48;101208.75;5001031;28;45424;-66
2023/07/19 05:30:06;;;;;;;;;1.00;1.00;;;;;21.77;46.83;101224.31;5000426;28;45387;-66
2023/07/19 05:32:31;;;;;;;;;3.00;1.75;;;;;21.58;46.71;101198.44;4982806;28;47239;-66
2023/07/19 05:34:58;;;;;;;;;2.00;2.00;;;;;21.89;46.67;101244.28;4987912;28;45489;-66
2023/07/19 05:37:25;;;;;;;;;3.75;1.25;;;;;21.53;46.75;101186.16;5000369;28;45548;-66
2023/07/19 05:39:51;;;;;;;;;2.00;2.00;;;;;21.51;46.78;101182.72;4999627;28;45583;-66
2023/07/19 05:42:18;;;;;;;;;1.00;1.00;;;;;21.79;46.82;101228.63;4999003;28;47270;-66
2023/07/19 05:44:46;;;;;;;;;2.00;1.00;;;;;21.56;46.78;101197.69;5000576;28;45648;-66
2023/07/19 05:47:12;;;;;;;;;1.50;1.00;;;;;21.89;46.38;101253.31;5000463;28;45491;-66
2023/07/19 05:49:40;;;;;;;;;1.00;1.00;;;;;21.59;47.13;101210.19;4999771;28;45404;-66
2023/07/19 05:52:06;;;;;;;;;1.00;1.00;;;;;21.54;47.15;101215.09;4985587;28;47373;-66
2023/07/19 05:54:32;;;;;;;;;2.00;1.00;;;;;21.52;46.93;101215.19;5000188;28;45278;-69
2023/07/19 05:57:33;;;;;;;;;;;;;;;;;;;;;
2023/07/19 06:06:32;;;;;;;;;;;;;;;;;;;;;
2023/07/19 06:09:24;;;;;;;;;2.00;2.00;;;;;21.54;46.71;101223.22;4997956;28;68866;-69
2023/07/19 06:12:16;;;;;;;;;2.50;1.00;;;;;21.53;47.09;101233.22;4983504;28;45610;-69
2023/07/19 06:15:01;;;;;;;;;;;;;;;;;;;;;
2023/07/19 06:17:29;;;;;;;;;0.50;0.50;;;;;21.66;47.54;101268.53;4996362;28;72866;-69
2023/07/19 06:20:05;;;;;;;;;3.75;2.00;;;;;21.50;48.63;101232.56;4998892;28;45410;-69
2023/07/19 06:22:44;;;;;;;;;1.00;1.00;;;;;21.49;48.62;101236.28;4999299;28;45258;-68
2023/07/19 06:25:15;;;;;;;;;1.75;1.00;;;;;21.67;48.94;101273.00;4997212;28;45630;-68
2023/07/19 06:27:41;;;;;;;;;1.00;0.50;;;;;21.39;50.03;101241.44;4998138;28;46832;-68
2023/07/19 06:30:10;;;;;;;;;1.25;1.00;;;;;21.46;50.08;101243.59;4999513;28;45543;-68
2023/07/19 06:32:41;;;;;;;;;1.00;1.00;;;;;21.64;50.31;101259.63;4999484;28;45462;-69
2023/07/19 06:35:12;;;;;;;;;1.00;1.00;;;;;21.40;50.53;101216.91;4999501;28;46197;-68
2023/07/19 06:37:38;;;;;;;;;2.25;0.75;;;;;21.70;50.28;101261.91;4999293;28;45419;-68
2023/07/19 06:40:17;;;;;;;;;;;;;;;;;;;;;
2023/07/19 06:42:58;;;;;;;;;;;;;;;;;;;;;
2023/07/19 06:45:33;;;;;;;;;0.75;0.00;;;;;21.77;50.73;101257.78;4998185;28;75337;-68
2023/07/19 06:48:11;;;;;;;;;1.00;1.00;;;;;21.62;51.38;101227.13;4999462;28;45378;-69
2023/07/19 06:50:49;;;;;;;;;;;;;;;;;;;;;
2023/07/19 06:53:22;;;;;;;;;2.25;0.00;;;;;21.59;51.65;101224.63;4998263;28;72489;-67
2023/07/19 06:56:01;;;;;;;;;2.50;0.00;;;;;21.63;51.51;101228.88;4981141;28;47041;-68
2023/07/19 06:58:52;;;;;;;;;0.00;0.00;;;;;21.85;51.93;101265.34;5000377;28;45772;-68
2023/07/19 07:04:27;;;;;;;;;;;;;;;;;;;;;
2023/07/19 07:07:21;;;;;;;;;;;;;;;;;;;;;
2023/07/19 07:09:47;;;;;;;;;4.00;2.25;;;;;21.79;52.53;101238.66;4994029;28;72798;-67
2023/07/19 07:12:12;;;;;;;;;6.75;4.50;;;;;21.91;51.93;101250.47;4996880;28;45544;-67
2023/07/19 07:14:38;;;;;;;;;0.00;0.00;;;;;21.76;52.64;101238.88;4998211;28;45641;-67
2023/07/19 07:17:05;;;;;;;;;2.00;2.00;;;;;21.82;52.09;101233.84;4998469;28;46030;-67
2023/07/19 07:19:31;;;;;;;;;1.00;1.00;;;;;21.89;52.35;101241.56;4996557;28;45507;-68
2023/07/19 07:21:56;;;;;;;;;1.50;1.00;;;;;21.79;52.79;101214.19;4998185;28;45399;-67
2023/07/19 07:24:21;;;;;;;;;0.50;0.50;;;;;21.89;52.41;101245.16;4995168;28;45922;-67
2023/07/19 07:26:47;;;;;;;;;15.50;8.75;;;;;22.05;53.16;101269.34;4995424;28;45409;-68
2023/07/19 07:29:13;;;;;;;;;2.50;2.50;;;;;21.92;53.11;101255.81;4998587;28;45363;-68
2023/07/19 07:31:39;;;;;;;;;1.50;1.00;;;;;21.92;53.10;101247.66;4998667;28;45610;-67
2023/07/19 07:34:04;;;;;;;;;2.00;2.00;;;;;22.00;52.64;101255.22;4998623;28;45654;-67
2023/07/19 07:36:29;;;;;;;;;1.75;0.00;;;;;22.14;52.99;101276.00;4979178;28;46024;-67
2023/07/19 07:38:55;;;;;;;;;0.00;0.00;;;;;22.17;52.70;101276.63;5001986;28;45404;-68
2023/07/19 07:41:21;;;;;;;;;0.00;0.00;;;;;21.93;52.76;101240.34;5002083;28;45555;-68
2023/07/19 07:43:46;;;;;;;;;0.50;0.50;;;;;22.10;52.90;101261.75;5001300;28;45506;-68
2023/07/19 07:46:20;;;;;;;;;0.00;0.00;;;;;22.20;52.84;101272.81;5000895;28;46633;-67
2023/07/19 07:48:46;;;;;;;;;0.50;0.50;;;;;22.13;53.20;101257.94;4984223;28;45617;-65
2023/07/19 07:51:11;;;;;;;;;0.25;0.25;;;;;22.19;52.96;101265.66;4999999;28;45640;-65
2023/07/19 07:53:37;;;;;;;;;2.00;2.00;;;;;22.20;52.20;101253.78;5000290;28;45590;-65
2023/07/19 07:56:02;;;;;;;;;1.00;1.00;;;;;22.21;53.07;101253.66;4996552;28;46421;-65
2023/07/19 07:58:28;;;;;;;;;1.00;1.00;;;;;22.26;52.20;101249.75;5000373;28;45385;-65
2023/07/19 08:00:56;;;;;;;;;0.25;0.25;;;;;22.42;52.52;101268.53;5001694;28;45359;-65
2023/07/19 08:03:22;;;;;;;;;1.00;1.00;;;;;22.33;52.32;101253.78;4995869;28;45419;-65
2023/07/19 08:05:47;;;;;;;;;2.00;2.00;;;;;22.29;52.55;101241.41;4981428;28;45787;-65
2023/07/19 08:08:12;;;;;;;;;1.50;0.00;;;;;22.54;52.31;101275.81;4977664;28;45452;-65
2023/07/19 08:10:41;;;;;;;;;2.75;1.50;;;;;22.33;52.17;101249.19;4973573;28;45475;-65
2023/07/19 08:13:10;;;;;;;;;2.25;1.25;;;;;22.43;51.56;101238.50;4980247;28;45665;-65
2023/07/19 08:15:36;;;;;;;;;3.00;1.00;;;;;22.58;52.04;101275.44;4979106;28;46160;-65
2023/07/19 08:18:01;;;;;;;;;1.75;1.75;;;;;22.52;51.70;101262.31;4980572;28;45266;-65
2023/07/19 08:20:27;;;;;;;;;0.00;0.00;;;;;22.52;50.81;101256.00;4963331;28;45305;-65
2023/07/19 08:22:53;;;;;;;;;2.75;0.00;;;;;22.47;50.67;101247.31;4980480;28;45436;-65
2023/07/19 08:25:19;;;;;;;;;0.25;0.25;;;;;22.62;50.87;101273.38;4974743;28;45931;-65
2023/07/19 08:27:44;;;;;;;;;0.00;0.00;;;;;22.49;50.58;101254.38;4965664;28;45826;-65
2023/07/19 08:30:15;;;;;;;;;2.75;1.00;;;;;22.35;50.07;101222.78;4972629;28;45467;-65
2023/07/19 08:32:42;;;;;;;;;1.75;1.75;;;;;22.51;50.32;101246.13;4959869;28;45995;-66
2023/07/19 08:35:08;;;;;;;;;1.50;1.00;;;;;22.35;50.16;101219.19;4968485;28;45539;-64
2023/07/19 08:37:33;;;;;;;;;1.00;1.00;;;;;22.72;50.49;101269.00;4961631;28;45343;-85
2023/07/19 08:39:59;;;;;;;;;1.00;1.00;;;;;22.63;50.21;101256.06;4980259;28;45352;-79
2023/07/19 08:42:24;;;;;;;;;3.75;2.00;;;;;22.81;50.20;101269.28;4978617;28;45337;-75
2023/07/19 08:44:49;;;;;;;;;1.00;1.00;;;;;22.77;50.02;101255.03;4939703;28;54009;-75
2023/07/19 08:47:19;;;;;;;;;0.50;0.50;;;;;22.65;50.21;101226.88;4979840;28;45750;-73
2023/07/19 08:49:46;;;;;;;;;1.25;1.25;;;;;22.78;49.52;101243.16;4985279;28;45450;-76
2023/07/19 08:52:13;;;;;;;;;0.00;0.00;;;;;22.83;50.06;101243.66;4967104;28;45362;-76
2023/07/19 08:54:38;;;;;;;;;3.50;3.00;;;;;22.83;50.03;101243.66;4977729;28;45596;-76
2023/07/19 08:57:05;;;;;;;;;1.50;1.00;;;;;22.83;50.00;101238.22;4957567;28;45988;-66
2023/07/19 08:59:31;;;;;;;;;2.50;2.00;;;;;22.85;49.53;101244.41;4973426;28;45597;-67
2023/07/19 09:01:56;;;;;;;;;1.00;1.00;;;;;22.91;49.00;101243.94;4976177;28;45421;-67
2023/07/19 09:04:21;;;;;;;;;1.00;1.00;;;;;23.05;49.26;101242.88;4979486;28;45696;-66
2023/07/19 09:06:49;;;;;;;;;2.00;1.25;;;;;23.11;48.93;101250.63;4996407;28;45512;-66
2023/07/19 09:09:14;;;;;;;;;3.00;3.00;;;;;23.02;49.15;101236.81;4991643;28;45531;-66
2023/07/19 09:11:48;;;;;;;;;1.25;1.25;;;;;23.06;48.95;101244.66;4982204;28;45741;-68
2023/07/19 09:14:14;;;;;;;;;2.00;2.00;;;;;23.06;48.61;101241.03;4991145;28;45460;-67
2023/07/19 09:16:40;;;;;;;;;1.00;1.00;;;;;23.28;48.46;101273.81;4993248;28;45572;-67
2023/07/19 09:19:07;;;;;;;;;2.50;1.00;;;;;23.10;48.60;101250.72;4999589;28;45348;-67
2023/07/19 09:21:42;;;;;;;;;1.75;1.75;;;;;23.12;48.65;101246.91;4997582;28;45532;-66
2023/07/19 09:24:08;;;;;;;;;2.25;2.25;;;;;23.19;47.96;101247.31;4999408;28;45519;-67
2023/07/19 09:26:51;;;;;;;;;3.00;1.75;;;;;22.93;47.54;101209.31;4981064;28;46048;-67
2023/07/19 09:29:17;;;;;;;;;4.00;1.50;;;;;23.16;47.93;101239.38;4994886;28;45915;-67
2023/07/19 09:32:09;;;;;;;;;2.25;1.25;;;;;23.29;47.50;101248.31;4998339;28;45512;-67
2023/07/19 09:34:36;;;;;;;;;4.25;3.00;;;;;23.39;47.28;101253.91;4989754;28;45547;-67
2023/07/19 09:37:02;;;;;;;;;2.00;2.00;;;;;23.22;47.32;101219.84;4996999;28;45409;-67
2023/07/19 09:39:29;;;;;;;;;2.00;2.00;;;;;23.19;46.84;101214.63;4997184;28;45429;-66
2023/07/19 09:41:57;;;;;;;;;2.00;1.00;;;;;23.32;46.70;101241.75;4999402;28;45537;-66
2023/07/19 09:44:22;;;;;;;;;1.75;1.75;;;;;23.40;46.43;101239.28;4998577;28;45427;-67
2023/07/19 09:46:48;;;;;;;;;1.75;1.75;;;;;23.40;46.44;101255.63;4991543;28;45497;-66
2023/07/19 09:49:14;;;;;;;;;1.50;1.00;;;;;23.33;46.76;101234.47;4996294;28;45432;-66
2023/07/19 09:51:43;;;;;;;;;0.75;0.75;;;;;23.40;46.65;101249.34;4998666;28;45475;-68
2023/07/19 09:54:11;;;;;;;;;1.25;1.00;;;;;23.41;46.06;101243.78;4990435;28;45456;-66
2023/07/19 09:56:40;;;;;;;;;1.00;1.00;;;;;23.54;46.48;101254.56;5001717;28;45554;-67
2023/07/19 09:59:15;;;;;;;;;2.00;1.00;;;;;23.48;46.33;101247.72;4986795;28;45636;-67
2023/07/19 10:01:41;;;;;;;;;0.25;0.25;;;;;23.48;46.46;101239.56;4993907;28;45413;-66
2023/07/19 10:04:27;;;;;;;;;1.00;0.75;;;;;23.62;46.45;101248.50;4998995;28;45408;-67
2023/07/19 10:07:08;;;;;;;;;2.50;1.00;;;;;23.58;46.35;101252.47;4981573;28;45486;-67
2023/07/19 10:09:41;;;;;;;;;1.00;1.00;;;;;23.57;45.84;101239.81;4997135;28;45601;-67
2023/07/19 10:12:15;;;;;;;;;1.00;1.00;;;;;23.57;46.24;101243.44;4999216;28;45655;-66
2023/07/19 10:14:40;;;;;;;;;2.00;1.00;;;;;23.61;46.30;101234.00;4999419;28;45433;-67
2023/07/19 10:17:06;;;;;;;;;1.75;1.00;;;;;23.54;46.21;101215.53;4986052;28;45599;-67
2023/07/19 10:19:32;;;;;;;;;1.00;1.00;;;;;23.64;45.54;101224.75;4975042;28;45397;-67
2023/07/19 10:22:06;;;;;;;;;2.00;2.00;;;;;23.67;45.35;101229.91;4984134;28;45817;-67
2023/07/19 10:24:33;;;;;;;;;2.75;2.25;;;;;23.69;45.33;101227.97;4993278;28;45449;-67
2023/07/19 10:27:07;;;;;;;;;2.00;2.00;;;;;23.80;45.63;101247.00;4997914;28;45440;-67
2023/07/19 10:29:44;;;;;;;;;2.50;1.25;;;;;23.77;45.58;101230.03;4997751;28;45511;-67
2023/07/19 10:32:10;;;;;;;;;1.75;1.75;;;;;23.84;45.45;101248.56;4999246;28;45508;-67
2023/07/19 10:34:36;;;;;;;;;4.00;1.25;;;;;23.85;44.89;101239.38;4998172;28;45608;-67
2023/07/19 10:37:04;;;;;;;;;2.25;1.75;;;;;23.79;44.40;101236.25;4998112;28;45617;-67
2023/07/19 10:39:30;;;;;;;;;1.75;1.75;;;;;23.91;44.56;101256.25;4997167;28;45527;-66
2023/07/19 10:41:56;;;;;;;;;1.00;1.00;;;;;23.86;44.23;101242.97;4998014;28;45692;-67
2023/07/19 10:44:22;;;;;;;;;1.25;1.25;;;;;23.85;44.46;101249.41;4998952;28;45377;-68
2023/07/19 10:46:48;;;;;;;;;2.25;2.00;;;;;23.91;44.17;101261.69;4992808;28;45628;-67
2023/07/19 10:49:14;;;;;;;;;3.00;2.00;;;;;23.77;43.94;101235.50;4993339;28;45549;-67
2023/07/19 10:51:50;;;;;;;;;2.00;2.00;;;;;23.91;44.17;101262.56;4992822;28;45777;-69
2023/07/19 10:54:16;;;;;;;;;2.50;2.00;;;;;23.82;43.47;101238.75;4997158;28;46092;-68
2023/07/19 10:56:41;;;;;;;;;1.00;1.00;;;;;23.80;43.65;101246.16;4998592;28;45302;-67
2023/07/19 10:59:07;;;;;;;;;3.50;2.25;;;;;24.00;44.01;101283.63;4997144;28;45368;-67
2023/07/19 11:01:44;;;;;;;;;2.00;2.00;;;;;23.79;43.83;101231.69;4998745;28;45476;-66
2023/07/19 11:04:18;;;;;;;;;2.00;2.00;;;;;24.03;43.69;101264.28;4996763;28;46594;-67
2023/07/19 11:07:05;;;;;;;;;1.25;1.25;;;;;23.99;44.29;101248.28;4997240;28;46866;-67
2023/07/19 11:09:30;;;;;;;;;2.00;2.00;;;;;23.88;43.95;101235.53;4985419;28;45501;-67
2023/07/19 11:11:56;;;;;;;;;2.00;2.00;;;;;24.04;43.02;101254.25;4995228;28;45427;-67
2023/07/19 11:14:41;;;;;;;;;2.25;2.25;;;;;24.00;43.16;101248.16;4999176;28;46299;-67
2023/07/19 11:17:55;;;;;;;;;;;;;;;;;;;;;
2023/07/19 11:20:37;;;;;;;;;;;;;;;;;;;;;
2023/07/19 11:24:31;;;;;;;;;;;;;;;;;;;;;
2023/07/19 11:26:35;;;;;;;;;2.50;2.50;;;;;23.89;42.54;101226.38;4977803;28;45349;-66
2023/07/19 11:29:20;;;;;;;;;3.50;1.75;;;;;23.97;42.83;101225.75;4996835;28;45544;-67
2023/07/19 11:32:19;;;;;;;;;2.00;1.25;;;;;24.26;42.56;101266.13;4998533;28;45363;-66
2023/07/19 11:34:46;;;;;;;;;2.00;2.00;;;;;24.17;42.65;101257.72;4994901;28;45423;-67
2023/07/19 11:37:39;;;;;;;;;5.00;2.00;;;;;24.18;42.27;101244.94;4988437;28;45581;-66
2023/07/19 11:40:22;;;;;;;;;1.00;1.00;;;;;24.32;41.95;101258.28;4993278;28;45453;-66
2023/07/19 11:42:51;;;;;;;;;3.50;3.50;;;;;24.20;41.95;101241.06;4985239;28;45324;-66
2023/07/19 11:45:20;;;;;;;;;1.50;1.50;;;;;24.38;42.53;101263.25;4997921;28;45388;-65
2023/07/19 11:47:51;;;;;;;;;3.50;2.50;;;;;24.26;41.78;101239.72;4998489;28;46270;-71
2023/07/19 11:50:18;;;;;;;;;3.00;2.00;;;;;24.25;42.04;101239.84;4995286;28;45941;-68
2023/07/19 11:52:57;;;;;;;;;3.00;3.00;;;;;24.46;42.20;101265.34;4988873;28;45555;-69
2023/07/19 11:55:24;;;;;;;;;1.00;1.00;;;;;24.30;42.06;101238.47;4988732;28;46509;-70
2023/07/19 11:57:51;;;;;;;;;1.50;1.00;;;;;24.09;42.02;101193.88;4977101;28;47350;-70
2023/07/19 12:00:18;;;;;;;;;4.00;2.50;;;;;24.34;42.08;101239.97;4975485;28;45437;-70